createdAt,value
2023-02-22T00:01:50.970Z,3.55
2023-02-22T00:04:54.952Z,3.80
2023-02-22T00:07:58.007Z,3.55
2023-02-22T00:11:03.914Z,3.92
2023-02-22T00:14:06.456Z,3.60
2023-02-22T00:17:09.744Z,3.75
2023-02-22T00:20:14.183Z,3.62
2023-02-22T00:23:21.118Z,4.00
2023-02-22T00:26:23.657Z,3.95
2023-02-22T00:29:26.811Z,4.00
2023-02-22T00:32:29.664Z,3.92
2023-02-22T00:35:32.917Z,3.97
2023-02-22T00:38:35.678Z,3.62
2023-02-22T00:44:41.180Z,3.65
2023-02-22T00:47:45.003Z,3.72
2023-02-22T00:50:50.643Z,4.70
2023-02-22T00:53:53.753Z,4.37
2023-02-22T00:56:58.291Z,4.12
2023-02-22T01:00:11.991Z,4.40
2023-02-22T01:03:17.073Z,4.90
2023-02-22T01:06:21.232Z,4.95
2023-02-22T01:12:28.313Z,4.47
2023-02-22T01:15:30.989Z,4.87
2023-02-22T01:18:36.188Z,4.55
2023-02-22T01:21:40.647Z,3.80
2023-02-22T01:24:43.793Z,4.18
2023-02-22T01:27:46.436Z,4.20
2023-02-22T01:30:49.980Z,4.50
2023-02-22T01:33:52.598Z,4.72
2023-02-22T01:36:56.565Z,4.90
2023-02-22T01:43:23.561Z,4.20
2023-02-22T01:46:27.498Z,4.10
2023-02-22T01:49:42.388Z,4.82
2023-02-22T01:52:44.958Z,4.28
2023-02-22T01:55:48.667Z,5.18
2023-02-22T01:58:57.303Z,4.30
2023-02-22T02:02:00.870Z,4.53
2023-02-22T02:05:08.347Z,5.03
2023-02-22T02:08:22.126Z,4.57
2023-02-22T02:11:26.024Z,4.53
2023-02-22T02:14:32.039Z,4.57
2023-02-22T02:17:37.143Z,5.12
2023-02-22T02:20:42.910Z,4.93
2023-02-22T02:24:03.366Z,4.55
2023-02-22T02:27:17.134Z,4.90
2023-02-22T02:30:36.222Z,4.57
2023-02-22T02:33:59.309Z,4.70
2023-02-22T02:37:16.309Z,4.78
2023-02-22T02:40:32.126Z,4.57
2023-02-22T02:43:53.598Z,4.78
2023-02-22T02:47:02.046Z,4.25
2023-02-22T02:50:25.969Z,4.35
2023-02-22T02:53:39.368Z,4.80
2023-02-22T02:56:45.604Z,4.70
2023-02-22T02:59:48.773Z,4.20
2023-02-22T03:03:17.510Z,4.37
2023-02-22T03:07:02.586Z,4.57
2023-02-22T03:10:30.499Z,4.78
2023-02-22T03:13:40.724Z,4.78
2023-02-22T03:16:52.603Z,4.62
2023-02-22T03:20:02.022Z,4.75
2023-02-22T03:23:15.552Z,5.40
2023-02-22T03:26:28.111Z,5.20
2023-02-22T03:29:35.614Z,4.70
2023-02-22T03:32:42.872Z,4.68
2023-02-22T03:35:56.863Z,5.25
2023-02-22T03:39:04.303Z,4.72
2023-02-22T03:42:17.517Z,5.20
2023-02-22T03:45:24.788Z,4.90
2023-02-22T03:48:49.839Z,4.80
2023-02-22T03:51:53.375Z,5.03
2023-02-22T03:54:56.450Z,4.82
2023-02-22T03:58:03.277Z,5.32
2023-02-22T04:01:06.584Z,4.87
2023-02-22T04:07:13.110Z,5.53
2023-02-22T04:10:17.206Z,5.50
2023-02-22T04:13:20.088Z,5.78
2023-02-22T04:16:23.533Z,5.30
2023-02-22T04:19:26.549Z,5.18
2023-02-22T04:22:30.206Z,5.57
2023-02-22T04:25:32.941Z,5.53
2023-02-22T04:28:40.946Z,5.45
2023-02-22T04:31:43.929Z,5.45
2023-02-22T04:34:47.841Z,5.60
2023-02-22T04:37:50.557Z,5.75
2023-02-22T04:40:55.512Z,5.20
2023-02-22T04:43:58.061Z,5.72
2023-02-22T04:47:01.501Z,5.57
2023-02-22T04:50:09.000Z,5.53
2023-02-22T04:53:12.235Z,5.55
2023-02-22T04:56:18.087Z,6.18
2023-02-22T04:59:21.589Z,6.72
2023-02-22T05:02:28.613Z,5.87
2023-02-22T05:08:34.169Z,6.37
2023-02-22T05:11:37.282Z,6.70
2023-02-22T05:14:39.915Z,6.65
2023-02-22T05:17:43.011Z,6.82
2023-02-22T05:20:45.582Z,6.90
2023-02-22T05:23:48.689Z,6.50
2023-02-22T05:26:54.227Z,6.87
2023-02-22T05:29:57.315Z,6.28
2023-02-22T05:33:00.744Z,7.13
2023-02-22T05:36:03.901Z,6.65
2023-02-22T05:39:06.605Z,6.80
2023-02-22T05:45:16.645Z,6.80
2023-02-22T05:48:22.219Z,7.20
2023-02-22T05:51:25.198Z,7.55
2023-02-22T05:54:28.374Z,7.53
2023-02-22T05:57:31.222Z,7.90
2023-02-22T06:00:34.421Z,8.13
2023-02-22T06:03:37.388Z,7.80
2023-02-22T06:06:40.191Z,8.35
2023-02-22T06:09:43.158Z,8.30
2023-02-22T06:12:47.301Z,7.75
2023-02-22T06:15:50.114Z,7.62
2023-02-22T06:18:53.010Z,7.72
2023-02-22T06:22:00.002Z,8.45
2023-02-22T06:25:04.379Z,8.82
2023-02-22T06:28:10.158Z,8.27
2023-02-22T06:31:13.014Z,8.27
2023-02-22T06:34:16.252Z,8.90
2023-02-22T06:37:19.134Z,10.75
2023-02-22T06:40:21.934Z,12.10
2023-02-22T06:43:25.884Z,8.55
2023-02-22T06:46:28.929Z,8.70
2023-02-22T06:49:31.749Z,7.90
2023-02-22T06:52:34.615Z,7.72
2023-02-22T06:55:37.447Z,7.80
2023-02-22T06:58:40.242Z,7.85
2023-02-22T07:01:43.632Z,9.10
2023-02-22T07:04:46.543Z,7.78
2023-02-22T07:07:51.023Z,8.60
2023-02-22T07:10:53.912Z,15.73
2023-02-22T07:13:56.895Z,19.42
2023-02-22T07:16:59.710Z,11.43
2023-02-22T07:20:03.549Z,8.73
2023-02-22T07:23:06.413Z,8.68
2023-02-22T07:26:09.217Z,7.15
2023-02-22T07:29:11.991Z,8.25
2023-02-22T07:32:14.979Z,7.43
2023-02-22T07:35:20.361Z,7.37
2023-02-22T07:38:23.158Z,8.07
2023-02-22T07:41:26.154Z,7.32
2023-02-22T07:44:29.217Z,7.87
2023-02-22T07:47:32.019Z,7.15
2023-02-22T07:50:36.016Z,7.68
2023-02-22T07:53:38.856Z,7.00
2023-02-22T07:56:48.848Z,6.70
2023-02-22T07:59:51.770Z,6.97
2023-02-22T08:02:55.066Z,15.20
2023-02-22T08:06:00.615Z,6.87
2023-02-22T08:09:03.533Z,5.87
2023-02-22T08:12:06.992Z,5.32
2023-02-22T08:15:16.965Z,4.95
2023-02-22T08:18:21.966Z,4.70
2023-02-22T08:21:24.844Z,5.50
2023-02-22T08:24:27.680Z,5.28
2023-02-22T08:27:31.222Z,4.85
2023-02-22T08:30:35.481Z,5.22
2023-02-22T08:33:38.837Z,4.95
2023-02-22T08:36:42.650Z,4.95
2023-02-22T08:39:45.569Z,5.18
2023-02-22T08:42:48.385Z,4.80
2023-02-22T08:45:52.035Z,5.32
2023-02-22T08:48:55.084Z,5.37
2023-02-22T08:51:58.190Z,6.35
2023-02-22T08:55:01.868Z,6.57
2023-02-22T08:58:09.377Z,6.20
2023-02-22T09:01:14.030Z,5.75
2023-02-22T09:04:18.441Z,6.20
2023-02-22T09:07:21.361Z,5.80
2023-02-22T09:10:27.517Z,6.70
2023-02-22T09:13:30.345Z,5.15
2023-02-22T09:16:33.731Z,5.30
2023-02-22T09:19:36.655Z,4.80
2023-02-22T09:22:40.411Z,4.70
2023-02-22T09:25:43.372Z,5.05
2023-02-22T09:28:46.241Z,4.62
2023-02-22T09:31:50.753Z,4.80
2023-02-22T09:34:54.016Z,5.57
2023-02-22T09:37:58.766Z,6.97
2023-02-22T09:41:16.783Z,7.95
2023-02-22T09:44:41.231Z,11.82
2023-02-22T09:47:50.139Z,11.48
2023-02-22T09:50:59.043Z,11.80
2023-02-22T09:54:06.497Z,12.57
2023-02-22T09:57:16.211Z,12.52
2023-02-22T10:00:21.378Z,12.20
2023-02-22T10:03:44.884Z,12.32
2023-02-22T10:07:11.701Z,12.15
2023-02-22T10:10:18.649Z,11.15
2023-02-22T10:13:34.823Z,12.60
2023-02-22T10:16:47.507Z,12.00
2023-02-22T10:20:06.445Z,10.57
2023-02-22T10:23:23.890Z,10.82
2023-02-22T10:26:30.726Z,10.10
2023-02-22T10:29:41.574Z,11.40
2023-02-22T10:32:47.994Z,10.98
2023-02-22T10:35:52.684Z,10.15
2023-02-22T10:39:11.133Z,11.40
2023-02-22T10:42:14.342Z,10.70
2023-02-22T10:45:22.842Z,11.35
2023-02-22T10:48:26.818Z,11.15
2023-02-22T10:51:30.635Z,10.60
2023-02-22T10:54:41.035Z,10.88
2023-02-22T10:57:49.758Z,11.63
2023-02-22T11:00:52.660Z,10.95
2023-02-22T11:04:04.617Z,11.85
2023-02-22T11:07:09.351Z,12.10
2023-02-22T11:10:12.212Z,11.10
2023-02-22T11:13:18.892Z,11.55
2023-02-22T11:16:27.895Z,11.48
2023-02-22T11:19:33.848Z,11.88
2023-02-22T11:22:42.381Z,12.20
2023-02-22T11:25:45.424Z,11.30
2023-02-22T11:31:54.915Z,11.65
2023-02-22T11:35:29.143Z,11.30
2023-02-22T11:38:34.313Z,11.27
2023-02-22T11:41:37.323Z,12.15
2023-02-22T11:47:52.607Z,11.95
2023-02-22T11:51:16.801Z,11.57
2023-02-22T11:54:31.478Z,12.50
2023-02-22T11:57:34.769Z,11.75
2023-02-22T12:00:54.044Z,12.82
2023-02-22T12:04:23.923Z,12.18
2023-02-22T12:07:36.440Z,13.05
2023-02-22T12:10:57.848Z,13.57
2023-02-22T12:14:21.879Z,13.20
2023-02-22T12:17:48.152Z,12.60
2023-02-22T12:21:01.583Z,13.80
2023-02-22T12:24:14.340Z,13.93
2023-02-22T12:27:26.543Z,13.98
2023-02-22T12:30:38.773Z,13.15
2023-02-22T12:34:07.919Z,12.93
2023-02-22T12:38:01.829Z,14.07
2023-02-22T12:41:27.063Z,15.30
2023-02-22T12:44:37.287Z,14.63
2023-02-22T12:47:49.604Z,14.43
2023-02-22T12:50:58.448Z,14.98
2023-02-22T12:54:14.254Z,14.32
2023-02-22T12:57:42.410Z,15.43
2023-02-22T13:00:51.237Z,14.75
2023-02-22T13:03:55.849Z,15.30
2023-02-22T13:07:06.885Z,15.23
2023-02-22T13:10:20.445Z,14.32
2023-02-22T13:13:55.759Z,15.25
2023-02-22T13:17:06.846Z,14.93
2023-02-22T13:20:31.468Z,16.12
2023-02-22T13:23:46.217Z,15.07
2023-02-22T13:27:09.424Z,15.00
2023-02-22T13:30:30.352Z,15.25
2023-02-22T13:33:42.282Z,13.82
2023-02-22T13:36:48.843Z,14.95
2023-02-22T13:40:26.310Z,14.55
2023-02-22T13:44:01.410Z,14.32
2023-02-22T13:47:42.253Z,15.45
2023-02-22T13:51:09.668Z,14.68
2023-02-22T13:54:40.336Z,14.40
2023-02-22T13:57:49.913Z,14.13
2023-02-22T14:00:55.898Z,15.38
2023-02-22T14:04:23.698Z,14.52
2023-02-22T14:07:45.530Z,14.43
2023-02-22T14:10:59.562Z,14.25
2023-02-22T14:14:02.341Z,13.80
2023-02-22T14:17:22.193Z,15.27
2023-02-22T14:20:35.304Z,14.87
2023-02-22T14:23:49.048Z,14.45
2023-02-22T14:27:01.572Z,14.15
2023-02-22T14:30:05.684Z,14.03
2023-02-22T14:33:46.317Z,14.75
2023-02-22T14:37:07.713Z,14.05
2023-02-22T14:40:25.908Z,14.63
2023-02-22T14:43:29.425Z,15.27
2023-02-22T14:46:36.360Z,14.85
2023-02-22T14:49:45.313Z,14.52
2023-02-22T14:53:01.643Z,15.07
2023-02-22T14:56:08.667Z,14.30
2023-02-22T14:59:17.443Z,14.63
2023-02-22T15:02:22.837Z,14.55
2023-02-22T15:05:30.441Z,14.82
2023-02-22T15:08:34.475Z,13.52
2023-02-22T15:11:37.408Z,14.27
2023-02-22T15:14:41.824Z,14.68
2023-02-22T15:17:46.434Z,14.82
2023-02-22T15:20:56.371Z,13.80
2023-02-22T15:24:08.073Z,13.35
2023-02-22T15:27:19.537Z,13.75
2023-02-22T15:30:30.113Z,12.18
2023-02-22T15:33:38.143Z,14.00
2023-02-22T15:36:43.045Z,14.93
2023-02-22T15:39:46.034Z,15.15
2023-02-22T15:42:54.063Z,14.90
2023-02-22T15:45:58.253Z,14.52
2023-02-22T15:49:28.983Z,15.70
2023-02-22T15:52:31.943Z,14.55
2023-02-22T15:55:41.104Z,14.65
2023-02-22T15:58:46.869Z,13.98
2023-02-22T16:01:53.295Z,13.95
2023-02-22T16:05:00.776Z,14.70
2023-02-22T16:08:04.168Z,13.88
2023-02-22T16:11:30.148Z,13.13
2023-02-22T16:14:37.019Z,18.35
2023-02-22T16:17:55.904Z,30.52
2023-02-22T16:21:13.056Z,13.57
2023-02-22T16:24:27.349Z,11.75
2023-02-22T16:27:30.222Z,10.88
2023-02-22T16:30:39.428Z,10.80
2023-02-22T16:33:44.432Z,11.12
2023-02-22T16:36:51.700Z,11.25
2023-02-22T16:39:55.475Z,11.60
2023-02-22T16:43:00.927Z,12.43
2023-02-22T16:46:06.953Z,15.57
2023-02-22T16:49:12.206Z,15.73
2023-02-22T16:52:15.326Z,16.12
2023-02-22T16:55:20.423Z,16.52
2023-02-22T16:58:27.928Z,17.70
2023-02-22T17:01:35.154Z,16.65
2023-02-22T17:04:39.629Z,17.05
2023-02-22T17:07:43.082Z,16.95
2023-02-22T17:10:46.454Z,16.70
2023-02-22T17:13:52.138Z,18.40
2023-02-22T17:16:54.923Z,17.60
2023-02-22T17:19:57.717Z,17.17
2023-02-22T17:23:06.484Z,17.90
2023-02-22T17:26:09.366Z,16.62
2023-02-22T17:29:13.761Z,16.50
2023-02-22T17:32:16.734Z,15.98
2023-02-22T17:35:23.245Z,17.55
2023-02-22T17:38:29.048Z,18.10
2023-02-22T17:41:32.078Z,19.62
2023-02-22T17:44:35.346Z,18.05
2023-02-22T17:50:43.761Z,17.42
2023-02-22T17:53:47.026Z,18.77
2023-02-22T17:56:50.046Z,18.27
2023-02-22T17:59:53.325Z,18.25
2023-02-22T18:03:01.337Z,20.17
2023-02-22T18:06:06.002Z,19.25
2023-02-22T18:09:10.935Z,17.30
2023-02-22T18:12:14.322Z,17.08
2023-02-22T18:15:19.602Z,16.27
2023-02-22T18:18:23.121Z,15.93
2023-02-22T18:21:26.860Z,14.00
2023-02-22T18:24:36.506Z,12.80
2023-02-22T18:27:39.538Z,12.65
2023-02-22T18:30:42.742Z,12.73
2023-02-22T18:33:47.538Z,12.10
2023-02-22T18:36:54.733Z,11.12
2023-02-22T18:39:58.212Z,11.45
2023-02-22T18:43:01.363Z,10.95
2023-02-22T18:46:18.947Z,9.95
2023-02-22T18:49:22.259Z,10.35
2023-02-22T18:52:24.777Z,9.88
2023-02-22T18:55:27.871Z,9.35
2023-02-22T18:58:32.775Z,8.50
2023-02-22T19:01:38.803Z,8.70
2023-02-22T19:04:44.133Z,8.73
2023-02-22T19:07:47.784Z,9.40
2023-02-22T19:10:50.541Z,9.40
2023-02-22T19:13:57.644Z,9.25
2023-02-22T19:17:02.809Z,9.55
2023-02-22T19:20:07.343Z,9.30
2023-02-22T19:23:10.510Z,9.57
2023-02-22T19:26:20.011Z,8.95
2023-02-22T19:29:23.884Z,9.40
2023-02-22T19:32:27.173Z,7.60
2023-02-22T19:35:30.092Z,9.73
2023-02-22T19:38:33.434Z,10.27
2023-02-22T19:41:36.505Z,9.80
2023-02-22T19:44:39.838Z,10.13
2023-02-22T19:47:42.490Z,10.30
2023-02-22T19:53:53.077Z,10.20
2023-02-22T19:56:58.077Z,9.68
2023-02-22T20:00:10.901Z,10.55
2023-02-22T20:03:15.678Z,11.82
2023-02-22T20:06:18.583Z,19.05
2023-02-22T20:09:27.689Z,11.48
2023-02-22T20:12:30.722Z,10.60
2023-02-22T20:15:34.440Z,12.37
2023-02-22T20:18:37.277Z,11.07
2023-02-22T20:21:40.449Z,11.32
2023-02-22T20:24:43.342Z,12.27
2023-02-22T20:27:46.727Z,11.02
2023-02-22T20:33:56.492Z,11.77
2023-02-22T20:37:00.554Z,11.05
2023-02-22T20:40:05.248Z,12.05
2023-02-22T20:43:08.508Z,11.95
2023-02-22T20:46:11.386Z,11.73
2023-02-22T20:49:17.711Z,11.73
2023-02-22T20:52:39.336Z,12.82
2023-02-22T20:55:51.675Z,12.18
2023-02-22T20:59:00.488Z,10.65
2023-02-22T21:02:03.460Z,12.37
2023-02-22T21:05:25.546Z,11.93
2023-02-22T21:08:28.455Z,11.50
2023-02-22T21:11:31.993Z,11.50
2023-02-22T21:14:34.994Z,12.07
2023-02-22T21:17:37.956Z,11.90
2023-02-22T21:20:43.274Z,11.50
2023-02-22T21:23:50.265Z,10.88
2023-02-22T21:26:53.598Z,11.90
2023-02-22T21:29:58.604Z,11.25
2023-02-22T21:33:02.233Z,11.12
2023-02-22T21:36:15.866Z,11.05
2023-02-22T21:39:19.201Z,10.18
2023-02-22T21:45:26.148Z,11.20
2023-02-22T21:48:29.527Z,22.27
2023-02-22T21:54:35.928Z,12.80
2023-02-22T21:57:38.828Z,10.77
2023-02-22T22:00:44.935Z,11.20
2023-02-22T22:03:48.296Z,10.63
2023-02-22T22:06:53.728Z,9.88
2023-02-22T22:09:56.927Z,10.23
2023-02-22T22:13:00.201Z,11.12
2023-02-22T22:16:05.932Z,10.45
2023-02-22T22:19:09.192Z,9.90
2023-02-22T22:22:12.841Z,12.32
2023-02-22T22:25:18.964Z,10.10
2023-02-22T22:28:21.765Z,10.68
2023-02-22T22:31:26.458Z,10.02
2023-02-22T22:34:29.552Z,10.75
2023-02-22T22:37:32.420Z,10.18
2023-02-22T22:40:35.568Z,9.95
2023-02-22T22:43:38.459Z,11.35
2023-02-22T22:46:41.683Z,12.18
2023-02-22T22:49:45.425Z,10.93
2023-02-22T22:52:49.035Z,13.07
2023-02-22T22:55:51.832Z,13.52
2023-02-22T22:58:56.944Z,12.70
2023-02-22T23:02:02.946Z,12.10
2023-02-22T23:05:08.275Z,11.80
2023-02-22T23:08:12.897Z,13.07
2023-02-22T23:11:16.519Z,12.73
2023-02-22T23:14:32.826Z,12.60
2023-02-22T23:17:42.433Z,12.88
2023-02-22T23:20:45.275Z,15.55
2023-02-22T23:23:51.616Z,14.45
2023-02-22T23:26:59.941Z,13.35
2023-02-22T23:30:02.957Z,12.90
2023-02-22T23:33:05.783Z,14.18
2023-02-22T23:36:11.178Z,14.23
2023-02-22T23:39:15.477Z,13.60
2023-02-22T23:42:18.361Z,12.93
2023-02-22T23:45:24.755Z,13.10
2023-02-22T23:48:30.074Z,13.10
2023-02-22T23:51:39.349Z,11.75
2023-02-22T23:54:46.494Z,12.45
2023-02-22T23:57:49.313Z,12.20
